createdAt,value
2018-02-24T00:01:46.940Z,65.10
2018-02-24T00:04:13.281Z,65.10
2018-02-24T00:06:39.588Z,65.30
2018-02-24T00:09:06.263Z,64.60
2018-02-24T00:11:32.518Z,64.60
2018-02-24T00:13:58.850Z,64.00
2018-02-24T00:16:25.106Z,64.30
2018-02-24T00:18:51.400Z,64.20
2018-02-24T00:21:17.653Z,64.00
2018-02-24T00:23:43.994Z,64.40
2018-02-24T00:26:10.233Z,64.10
2018-02-24T00:28:36.497Z,63.10
2018-02-24T00:31:02.858Z,63.80
2018-02-24T00:33:29.137Z,63.80
2018-02-24T00:35:55.529Z,63.90
2018-02-24T00:38:22.146Z,63.70
2018-02-24T00:40:48.480Z,63.70
2018-02-24T00:43:14.799Z,64.30
2018-02-24T00:45:41.122Z,63.90
2018-02-24T00:48:07.382Z,64.20
2018-02-24T00:50:33.976Z,63.60
2018-02-24T00:53:00.325Z,63.50
2018-02-24T00:55:26.626Z,63.50
2018-02-24T00:57:53.288Z,64.00
2018-02-24T01:00:19.573Z,64.00
2018-02-24T01:02:45.863Z,64.80
2018-02-24T01:05:12.155Z,64.10
2018-02-24T01:07:38.416Z,64.50
2018-02-24T01:10:05.078Z,64.40
2018-02-24T01:12:31.397Z,64.40
2018-02-24T01:14:57.664Z,64.10
2018-02-24T01:17:23.894Z,64.20
2018-02-24T01:19:50.155Z,63.90
2018-02-24T01:22:16.375Z,64.20
2018-02-24T01:24:42.652Z,64.30
2018-02-24T01:27:08.932Z,64.30
2018-02-24T01:29:35.220Z,63.90
2018-02-24T01:32:01.490Z,64.10
2018-02-24T01:34:27.752Z,64.30
2018-02-24T01:36:54.008Z,64.00
2018-02-24T01:39:20.336Z,64.20
2018-02-24T01:41:46.614Z,64.00
2018-02-24T01:44:12.954Z,64.20
2018-02-24T01:46:39.306Z,64.40
2018-02-24T01:49:05.585Z,64.40
2018-02-24T01:51:31.864Z,64.50
2018-02-24T01:53:58.127Z,63.90
2018-02-24T01:56:24.398Z,63.60
2018-02-24T01:58:50.660Z,63.40
2018-02-24T02:01:17.279Z,63.80
2018-02-24T02:03:43.797Z,63.80
2018-02-24T02:06:10.084Z,64.50
2018-02-24T02:08:36.371Z,63.70
2018-02-24T02:11:02.645Z,63.90
2018-02-24T02:13:28.917Z,64.00
2018-02-24T02:15:55.214Z,63.90
2018-02-24T02:18:21.435Z,63.90
2018-02-24T02:20:47.713Z,64.00
2018-02-24T02:23:14.131Z,63.90
2018-02-24T02:25:40.753Z,63.90
2018-02-24T02:28:07.022Z,63.90
2018-02-24T02:30:33.263Z,65.10
2018-02-24T02:32:59.568Z,64.40
2018-02-24T02:35:25.834Z,64.10
2018-02-24T02:37:52.132Z,64.40
2018-02-24T02:40:18.392Z,64.30
2018-02-24T02:42:46.438Z,64.00
2018-02-24T02:45:12.734Z,64.10
2018-02-24T02:47:38.999Z,64.30
2018-02-24T02:50:05.316Z,63.80
2018-02-24T02:52:31.583Z,64.10
2018-02-24T02:54:57.833Z,64.60
2018-02-24T02:57:24.549Z,63.70
2018-02-24T02:59:50.766Z,63.70
2018-02-24T03:02:17.423Z,63.60
2018-02-24T03:04:44.424Z,63.60
2018-02-24T03:07:10.651Z,64.00
2018-02-24T03:09:36.934Z,63.40
2018-02-24T03:12:03.172Z,63.70
2018-02-24T03:14:29.425Z,64.10
2018-02-24T03:16:55.699Z,63.80
2018-02-24T03:19:22.359Z,63.60
2018-02-24T03:21:48.607Z,63.60
2018-02-24T03:24:15.937Z,63.70
2018-02-24T03:26:42.184Z,63.60
2018-02-24T03:29:08.437Z,64.10
2018-02-24T03:31:34.716Z,64.00
2018-02-24T03:34:01.379Z,64.20
2018-02-24T03:36:27.984Z,64.30
2018-02-24T03:38:54.237Z,64.30
2018-02-24T03:41:20.553Z,64.60
2018-02-24T03:43:46.896Z,64.40
2018-02-24T03:46:19.100Z,64.70
2018-02-24T03:48:45.827Z,64.60
2018-02-24T03:51:12.116Z,64.60
2018-02-24T03:53:38.379Z,64.10
2018-02-24T03:56:04.763Z,64.80
2018-02-24T03:58:30.971Z,64.70
2018-02-24T04:00:57.247Z,65.10
2018-02-24T04:03:23.517Z,65.20
2018-02-24T04:05:49.818Z,65.00
2018-02-24T04:08:16.149Z,65.60
2018-02-24T04:10:42.397Z,64.60
2018-02-24T04:13:08.688Z,65.40
2018-02-24T04:15:34.990Z,64.80
2018-02-24T04:18:01.263Z,64.70
2018-02-24T04:20:27.899Z,64.70
2018-02-24T04:22:54.130Z,64.80
2018-02-24T04:25:20.355Z,64.60
2018-02-24T04:27:47.121Z,65.10
2018-02-24T04:30:13.392Z,64.70
2018-02-24T04:32:39.666Z,64.90
2018-02-24T04:35:05.967Z,65.40
2018-02-24T04:37:32.208Z,64.80
2018-02-24T04:39:58.468Z,65.10
2018-02-24T04:42:24.739Z,65.40
2018-02-24T04:44:51.349Z,64.70
2018-02-24T04:47:17.666Z,64.70
2018-02-24T04:49:43.941Z,64.30
2018-02-24T04:52:10.440Z,65.00
2018-02-24T04:54:37.542Z,66.00
2018-02-24T04:57:04.178Z,65.30
2018-02-24T04:59:30.446Z,65.30
2018-02-24T05:01:56.703Z,65.20
2018-02-24T05:04:22.997Z,66.20
2018-02-24T05:06:49.300Z,65.20
2018-02-24T05:09:16.564Z,66.10
2018-02-24T05:11:42.772Z,65.70
2018-02-24T05:14:09.039Z,65.60
2018-02-24T05:16:35.302Z,65.70
2018-02-24T05:19:01.564Z,65.40
2018-02-24T05:21:27.818Z,66.10
2018-02-24T05:23:54.056Z,65.80
2018-02-24T05:26:20.333Z,66.00
2018-02-24T05:28:47.075Z,65.80
2018-02-24T05:31:13.343Z,65.80
2018-02-24T05:33:39.592Z,66.30
2018-02-24T05:36:05.913Z,66.20
2018-02-24T05:38:32.165Z,66.10
2018-02-24T05:40:58.441Z,66.00
2018-02-24T05:43:24.749Z,66.50
2018-02-24T05:45:51.021Z,66.00
2018-02-24T05:48:17.716Z,65.80
2018-02-24T05:50:44.053Z,65.80
2018-02-24T05:53:10.311Z,66.00
2018-02-24T05:55:36.557Z,65.70
2018-02-24T05:58:02.809Z,65.90
2018-02-24T06:00:29.449Z,65.90
2018-02-24T06:02:56.160Z,66.20
2018-02-24T06:05:23.218Z,66.20
2018-02-24T06:07:49.489Z,66.50
2018-02-24T06:10:15.905Z,66.30
2018-02-24T06:12:42.162Z,66.50
2018-02-24T06:15:08.780Z,66.20
2018-02-24T06:17:35.011Z,66.20
2018-02-24T06:20:01.284Z,66.10
2018-02-24T06:22:27.544Z,66.90
2018-02-24T06:24:53.846Z,66.60
2018-02-24T06:27:20.514Z,67.20
2018-02-24T06:29:46.927Z,67.10
2018-02-24T06:32:13.638Z,66.90
2018-02-24T06:34:39.910Z,66.90
2018-02-24T06:37:06.444Z,67.20
2018-02-24T06:39:32.751Z,66.90
2018-02-24T06:41:58.986Z,67.10
2018-02-24T06:44:25.241Z,66.60
2018-02-24T06:46:51.490Z,66.60
2018-02-24T06:49:18.159Z,66.40
2018-02-24T06:51:44.424Z,66.50
2018-02-24T06:54:10.712Z,66.30
2018-02-24T06:56:37.007Z,65.60
2018-02-24T06:59:03.300Z,65.80
2018-02-24T07:01:29.577Z,66.50
2018-02-24T07:03:56.134Z,66.70
2018-02-24T07:06:22.367Z,66.50
2018-02-24T07:08:48.638Z,66.50
2018-02-24T07:11:14.903Z,65.80
2018-02-24T07:13:41.148Z,65.70
2018-02-24T07:16:07.406Z,65.20
2018-02-24T07:18:33.667Z,65.60
2018-02-24T07:21:00.315Z,64.80
2018-02-24T07:23:26.599Z,64.80
2018-02-24T07:25:52.907Z,64.70
2018-02-24T07:28:19.163Z,65.00
2018-02-24T07:30:45.450Z,64.10
2018-02-24T07:33:11.712Z,65.10
2018-02-24T07:35:37.987Z,64.30
2018-02-24T07:38:04.256Z,64.00
2018-02-24T07:40:30.900Z,64.90
2018-02-24T07:42:57.521Z,64.30
2018-02-24T07:45:23.759Z,64.30
2018-02-24T07:47:50.051Z,64.20
2018-02-24T07:50:16.448Z,63.60
2018-02-24T07:52:43.119Z,62.90
2018-02-24T07:55:09.391Z,62.90
2018-02-24T07:57:35.653Z,63.20
2018-02-24T08:00:03.184Z,63.10
2018-02-24T08:02:29.500Z,63.10
2018-02-24T08:04:55.827Z,64.00
2018-02-24T08:07:22.129Z,63.30
2018-02-24T08:09:48.857Z,63.20
2018-02-24T08:12:15.116Z,63.20
2018-02-24T08:14:41.424Z,63.00
2018-02-24T08:17:07.725Z,62.70
2018-02-24T08:19:33.974Z,61.90
2018-02-24T08:22:00.233Z,61.50
2018-02-24T08:24:26.574Z,61.40
2018-02-24T08:26:52.860Z,61.50
2018-02-24T08:29:19.459Z,60.30
2018-02-24T08:31:45.752Z,60.40
2018-02-24T08:34:12.027Z,59.90
2018-02-24T08:36:38.246Z,60.30
2018-02-24T08:39:04.503Z,60.90
2018-02-24T08:41:30.761Z,60.30
2018-02-24T08:43:57.042Z,60.00
2018-02-24T08:46:23.329Z,60.10
2018-02-24T08:48:49.665Z,61.10
2018-02-24T08:51:16.974Z,60.90
2018-02-24T08:53:43.528Z,60.30
2018-02-24T08:56:09.765Z,60.70
2018-02-24T08:58:36.090Z,61.00
2018-02-24T09:01:02.632Z,60.30
2018-02-24T09:03:28.892Z,60.40
2018-02-24T09:05:55.538Z,59.00
2018-02-24T09:08:22.464Z,59.00
2018-02-24T09:10:48.692Z,58.70
2018-02-24T09:13:14.969Z,58.80
2018-02-24T09:15:41.646Z,57.70
2018-02-24T09:18:07.952Z,57.80
2018-02-24T09:20:34.560Z,56.90
2018-02-24T09:23:01.123Z,56.90
2018-02-24T09:25:27.401Z,57.20
2018-02-24T09:27:53.644Z,56.40
2018-02-24T09:30:19.934Z,55.50
2018-02-24T09:32:47.529Z,55.90
2018-02-24T09:35:13.897Z,55.90
2018-02-24T09:37:40.469Z,55.60
2018-02-24T09:40:07.128Z,55.00
2018-02-24T09:42:33.370Z,55.00
2018-02-24T09:44:59.655Z,55.10
2018-02-24T09:47:25.922Z,54.40
2018-02-24T09:49:52.555Z,53.20
2018-02-24T09:52:18.879Z,53.20
2018-02-24T09:54:45.739Z,54.40
2018-02-24T09:57:12.089Z,53.00
2018-02-24T09:59:38.787Z,51.80
2018-02-24T10:02:05.077Z,51.80
2018-02-24T10:04:31.444Z,52.00
2018-02-24T10:06:58.065Z,51.40
2018-02-24T10:09:24.698Z,49.80
2018-02-24T10:11:51.343Z,48.50
2018-02-24T10:14:17.986Z,47.50
2018-02-24T10:16:44.591Z,45.40
2018-02-24T10:19:10.894Z,45.40
2018-02-24T10:21:37.511Z,44.80
2018-02-24T10:24:04.200Z,42.00
2018-02-24T10:26:30.524Z,42.10
2018-02-24T10:28:56.788Z,37.70
2018-02-24T10:31:23.140Z,35.50
2018-02-24T10:33:49.446Z,32.50
2018-02-24T10:36:16.485Z,29.70
2018-02-24T10:38:42.755Z,30.40
2018-02-24T10:41:09.080Z,27.50
2018-02-24T10:43:35.393Z,24.00
2018-02-24T10:46:01.700Z,21.30
2018-02-24T10:48:28.338Z,19.10
2018-02-24T10:50:54.902Z,19.10
2018-02-24T10:53:21.177Z,17.20
2018-02-24T10:55:47.562Z,16.20
2018-02-24T10:58:13.898Z,16.00
2018-02-24T11:00:40.185Z,14.80
2018-02-24T11:03:06.625Z,14.20
2018-02-24T11:05:33.366Z,15.10
2018-02-24T11:08:03.320Z,14.60
2018-02-24T11:10:29.605Z,14.90
2018-02-24T11:12:55.887Z,14.20
2018-02-24T11:15:22.176Z,14.30
2018-02-24T11:17:48.539Z,14.10
2018-02-24T11:20:15.643Z,13.80
2018-02-24T11:22:41.979Z,13.50
2018-02-24T11:25:08.784Z,13.70
2018-02-24T11:27:35.058Z,13.70
2018-02-24T11:30:01.433Z,14.40
2018-02-24T11:32:27.776Z,14.60
2018-02-24T11:34:54.090Z,14.10
2018-02-24T11:37:20.399Z,13.00
2018-02-24T11:39:47.598Z,12.90
2018-02-24T11:42:13.870Z,12.90
2018-02-24T11:44:40.149Z,12.00
2018-02-24T11:47:06.484Z,12.00
2018-02-24T11:49:32.805Z,11.90
2018-02-24T11:51:59.135Z,11.70
2018-02-24T11:54:25.852Z,11.40
2018-02-24T11:56:52.147Z,11.40
2018-02-24T11:59:18.495Z,11.20
2018-02-24T12:01:44.795Z,12.00
2018-02-24T12:04:11.152Z,11.70
2018-02-24T12:06:37.522Z,11.80
2018-02-24T12:09:03.892Z,11.80
2018-02-24T12:11:30.545Z,11.40
2018-02-24T12:13:59.086Z,11.40
2018-02-24T12:16:25.388Z,11.90
2018-02-24T12:18:51.677Z,11.40
2018-02-24T12:21:18.648Z,11.50
2018-02-24T12:23:45.303Z,11.40
2018-02-24T12:26:11.997Z,11.50
2018-02-24T12:28:38.242Z,11.50
2018-02-24T12:31:06.113Z,11.40
2018-02-24T12:33:32.399Z,11.20
2018-02-24T12:35:58.686Z,11.40
2018-02-24T12:38:24.936Z,11.90
2018-02-24T12:40:51.256Z,11.90
2018-02-24T12:43:18.487Z,12.10
2018-02-24T12:45:45.067Z,11.80
2018-02-24T12:48:11.370Z,12.40
2018-02-24T12:50:37.624Z,12.00
2018-02-24T12:53:03.931Z,11.90
2018-02-24T12:55:30.268Z,13.20
2018-02-24T12:57:57.174Z,13.00
2018-02-24T13:00:23.886Z,13.20
2018-02-24T13:02:50.184Z,13.20
2018-02-24T13:05:17.501Z,14.40
2018-02-24T13:07:44.074Z,15.10
2018-02-24T13:10:10.376Z,16.10
2018-02-24T13:12:37.076Z,16.90
2018-02-24T13:15:03.675Z,16.90
2018-02-24T13:17:30.288Z,18.70
2018-02-24T13:19:56.693Z,18.70
2018-02-24T13:22:23.759Z,19.50
2018-02-24T13:24:51.133Z,19.50
2018-02-24T13:27:17.424Z,20.60
2018-02-24T13:29:44.054Z,22.00
2018-02-24T13:32:11.067Z,21.80
2018-02-24T13:34:37.329Z,21.80
2018-02-24T13:37:03.607Z,22.80
2018-02-24T13:39:29.866Z,24.00
2018-02-24T13:41:56.117Z,25.10
2018-02-24T13:44:22.428Z,26.10
2018-02-24T13:46:48.755Z,26.10
2018-02-24T13:49:15.037Z,25.50
2018-02-24T13:51:41.299Z,27.90
2018-02-24T13:54:07.960Z,26.10
2018-02-24T13:56:34.199Z,26.10
2018-02-24T13:59:00.528Z,27.60
2018-02-24T14:01:26.779Z,27.80
2018-02-24T14:03:53.883Z,28.90
2018-02-24T14:06:20.919Z,28.70
2018-02-24T14:08:47.238Z,28.00
2018-02-24T14:11:14.624Z,28.00
2018-02-24T14:13:40.863Z,28.80
2018-02-24T14:16:07.144Z,29.50
2018-02-24T14:18:33.434Z,28.70
2018-02-24T14:20:59.710Z,29.00
2018-02-24T14:23:26.057Z,29.50
2018-02-24T14:25:52.678Z,29.50
2018-02-24T14:28:19.070Z,29.40
2018-02-24T14:30:45.370Z,29.20
2018-02-24T14:33:11.675Z,29.40
2018-02-24T14:35:38.323Z,30.40
2018-02-24T14:38:05.413Z,30.70
2018-02-24T14:40:32.406Z,30.70
2018-02-24T14:42:58.666Z,30.90
2018-02-24T14:45:25.274Z,31.80
2018-02-24T14:47:51.551Z,31.90
2018-02-24T14:50:17.894Z,32.40
2018-02-24T14:52:44.203Z,32.60
2018-02-24T14:55:15.369Z,32.80
2018-02-24T14:57:41.626Z,32.60
2018-02-24T15:00:10.921Z,32.50
2018-02-24T15:02:37.221Z,33.90
2018-02-24T15:05:03.503Z,32.50
2018-02-24T15:07:29.802Z,33.80
2018-02-24T15:09:56.512Z,34.90
2018-02-24T15:12:22.798Z,34.90
2018-02-24T15:14:49.173Z,35.00
2018-02-24T15:17:15.493Z,35.70
2018-02-24T15:19:41.772Z,34.90
2018-02-24T15:22:08.091Z,34.60
2018-02-24T15:24:34.421Z,35.50
2018-02-24T15:27:00.689Z,36.20
2018-02-24T15:29:26.959Z,37.20
2018-02-24T15:31:53.242Z,36.90
2018-02-24T15:34:19.541Z,37.20
2018-02-24T15:36:47.106Z,37.50
2018-02-24T15:39:13.425Z,38.70
2018-02-24T15:41:39.691Z,39.20
2018-02-24T15:44:05.944Z,39.50
2018-02-24T15:46:32.226Z,40.30
2018-02-24T15:48:58.552Z,41.50
2018-02-24T15:51:24.834Z,41.70
2018-02-24T15:53:51.114Z,40.90
2018-02-24T15:56:17.480Z,41.80
2018-02-24T15:58:43.791Z,41.40
2018-02-24T16:01:10.478Z,42.10
2018-02-24T16:03:36.742Z,42.10
2018-02-24T16:06:03.029Z,42.40
2018-02-24T16:08:29.316Z,42.20
2018-02-24T16:10:55.651Z,43.20
2018-02-24T16:13:21.980Z,44.20
2018-02-24T16:15:48.457Z,45.00
2018-02-24T16:18:15.080Z,46.60
2018-02-24T16:20:41.357Z,46.60
2018-02-24T16:23:07.624Z,45.10
2018-02-24T16:25:33.911Z,45.10
2018-02-24T16:28:00.584Z,45.10
2018-02-24T16:30:26.868Z,45.10
2018-02-24T16:32:53.171Z,45.90
2018-02-24T16:35:19.581Z,46.50
2018-02-24T16:37:45.868Z,47.60
2018-02-24T16:40:12.568Z,48.30
2018-02-24T16:42:38.856Z,48.20
2018-02-24T16:45:05.154Z,48.60
2018-02-24T16:47:31.420Z,48.70
2018-02-24T16:49:57.712Z,49.70
2018-02-24T16:52:23.990Z,48.70
2018-02-24T16:54:50.275Z,49.50
2018-02-24T16:57:16.717Z,50.00
2018-02-24T16:59:42.998Z,50.20
2018-02-24T17:02:10.854Z,50.50
2018-02-24T17:04:37.128Z,51.20
2018-02-24T17:07:05.188Z,51.30
2018-02-24T17:09:31.435Z,50.50
2018-02-24T17:11:57.713Z,50.40
2018-02-24T17:14:23.961Z,50.60
2018-02-24T17:16:50.229Z,51.10
2018-02-24T17:19:17.451Z,51.30
2018-02-24T17:21:43.784Z,51.10
2018-02-24T17:24:10.026Z,51.40
2018-02-24T17:26:36.370Z,51.20
2018-02-24T17:29:02.974Z,51.60
2018-02-24T17:31:29.224Z,51.80
2018-02-24T17:33:55.492Z,51.90
2018-02-24T17:36:21.765Z,52.20
2018-02-24T17:38:48.511Z,51.60
2018-02-24T17:41:14.791Z,51.60
2018-02-24T17:43:41.088Z,52.30
2018-02-24T17:46:07.792Z,52.20
2018-02-24T17:48:34.083Z,52.20
2018-02-24T17:51:00.415Z,52.20
2018-02-24T17:53:26.700Z,51.90
2018-02-24T17:55:52.984Z,52.50
2018-02-24T17:58:19.661Z,53.10
2018-02-24T18:00:45.936Z,53.10
2018-02-24T18:03:12.286Z,52.60
2018-02-24T18:05:38.978Z,51.80
2018-02-24T18:08:05.232Z,51.80
2018-02-24T18:10:31.483Z,51.80
2018-02-24T18:12:57.827Z,51.60
2018-02-24T18:15:24.151Z,51.30
2018-02-24T18:17:50.519Z,51.70
2018-02-24T18:20:18.257Z,50.90
2018-02-24T18:22:44.556Z,50.90
2018-02-24T18:25:10.867Z,51.90
2018-02-24T18:27:37.490Z,51.60
2018-02-24T18:30:04.162Z,51.00
2018-02-24T18:32:30.497Z,51.00
2018-02-24T18:34:56.819Z,51.50
2018-02-24T18:37:23.547Z,51.40
2018-02-24T18:39:50.310Z,52.20
2018-02-24T18:42:17.476Z,52.20
2018-02-24T18:44:43.748Z,51.20
2018-02-24T18:47:10.216Z,51.10
2018-02-24T18:49:37.275Z,50.50
2018-02-24T18:52:03.649Z,50.80
2018-02-24T18:54:29.915Z,51.00
2018-02-24T18:56:56.360Z,51.90
2018-02-24T18:59:23.674Z,51.40
2018-02-24T19:01:50.356Z,51.00
2018-02-24T19:04:16.990Z,51.00
2018-02-24T19:06:43.253Z,51.00
2018-02-24T19:09:09.522Z,51.00
2018-02-24T19:11:36.495Z,50.60
2018-02-24T19:14:02.847Z,50.60
2018-02-24T19:16:29.181Z,50.70
2018-02-24T19:18:56.430Z,51.40
2018-02-24T19:21:22.711Z,50.80
2018-02-24T19:23:49.045Z,50.50
2018-02-24T19:26:15.358Z,51.90
2018-02-24T19:28:41.692Z,51.70
2018-02-24T19:31:08.050Z,51.90
2018-02-24T19:33:35.284Z,51.30
2018-02-24T19:36:01.604Z,52.10
2018-02-24T19:38:27.920Z,52.40
2018-02-24T19:40:54.630Z,51.80
2018-02-24T19:43:20.896Z,51.60
2018-02-24T19:45:47.666Z,51.00
2018-02-24T19:48:13.994Z,51.00
2018-02-24T19:50:40.261Z,51.10
2018-02-24T19:53:06.503Z,51.70
2018-02-24T19:57:29.946Z,51.90
2018-02-24T19:59:56.271Z,51.30
2018-02-24T20:02:22.506Z,52.10
2018-02-24T20:04:48.818Z,51.20
2018-02-24T20:07:15.309Z,52.00
2018-02-24T20:09:42.005Z,51.10
2018-02-24T20:12:08.310Z,51.10
2018-02-24T20:14:34.570Z,51.80
2018-02-24T20:17:00.774Z,50.40
2018-02-24T20:19:27.065Z,50.50
2018-02-24T20:21:53.680Z,51.80
2018-02-24T20:24:19.938Z,51.80
2018-02-24T20:26:46.611Z,51.30
2018-02-24T20:29:13.407Z,51.30
2018-02-24T20:31:40.004Z,50.70
2018-02-24T20:34:06.779Z,50.70
2018-02-24T20:36:33.191Z,51.20
2018-02-24T20:38:59.437Z,50.90
2018-02-24T20:41:26.080Z,51.00
2018-02-24T20:43:52.709Z,51.70
2018-02-24T20:46:19.221Z,51.70
2018-02-24T20:48:45.553Z,51.20
2018-02-24T20:51:11.844Z,51.40
2018-02-24T20:53:38.551Z,51.50
2018-02-24T20:56:05.190Z,53.50
2018-02-24T20:58:33.081Z,51.80
2018-02-24T21:00:59.464Z,51.80
2018-02-24T21:03:25.857Z,51.70
2018-02-24T21:05:52.263Z,51.90
2018-02-24T21:08:18.898Z,51.50
2018-02-24T21:10:45.700Z,52.20
2018-02-24T21:13:12.014Z,52.20
2018-02-24T21:15:39.182Z,51.60
2018-02-24T21:18:05.423Z,52.10
2018-02-24T21:20:31.663Z,53.00
2018-02-24T21:22:57.935Z,52.50
2018-02-24T21:25:24.193Z,52.40
2018-02-24T21:27:50.495Z,52.40
2018-02-24T21:30:16.793Z,52.70
2018-02-24T21:32:43.494Z,52.70
2018-02-24T21:35:09.791Z,52.70
2018-02-24T21:37:36.053Z,52.20
2018-02-24T21:40:02.289Z,53.30
2018-02-24T21:42:28.560Z,54.00
2018-02-24T21:44:54.834Z,55.00
2018-02-24T21:47:21.054Z,54.20
2018-02-24T21:49:47.305Z,53.40
2018-02-24T21:52:13.555Z,53.30
2018-02-24T21:54:40.126Z,54.40
2018-02-24T21:57:06.391Z,54.40
2018-02-24T21:59:32.649Z,53.80
2018-02-24T22:01:59.281Z,53.80
2018-02-24T22:04:25.934Z,54.20
2018-02-24T22:06:52.515Z,55.20
2018-02-24T22:09:18.742Z,55.20
2018-02-24T22:11:45.216Z,54.30
2018-02-24T22:14:11.810Z,55.40
2018-02-24T22:16:38.029Z,55.40
2018-02-24T22:19:04.282Z,55.90
2018-02-24T22:21:30.525Z,54.80
2018-02-24T22:23:56.745Z,55.60
2018-02-24T22:26:22.962Z,55.00
2018-02-24T22:28:49.236Z,54.80
2018-02-24T22:31:15.858Z,55.90
2018-02-24T22:33:42.450Z,55.40
2018-02-24T22:36:08.716Z,55.30
2018-02-24T22:38:34.916Z,54.90
2018-02-24T22:41:01.147Z,54.20
2018-02-24T22:43:27.452Z,56.20
2018-02-24T22:45:53.664Z,54.30
2018-02-24T22:48:26.046Z,54.90
2018-02-24T22:50:52.288Z,55.60
2018-02-24T22:53:18.490Z,55.40
2018-02-24T22:55:44.769Z,55.60
2018-02-24T22:58:10.994Z,54.60
2018-02-24T23:00:37.207Z,55.50
2018-02-24T23:03:03.416Z,55.00
2018-02-24T23:05:29.627Z,55.10
2018-02-24T23:07:55.870Z,54.60
2018-02-24T23:10:22.543Z,54.70
2018-02-24T23:12:48.743Z,55.40
2018-02-24T23:15:14.976Z,56.30
2018-02-24T23:17:41.215Z,55.40
2018-02-24T23:20:07.448Z,55.80
2018-02-24T23:22:33.656Z,56.40
2018-02-24T23:24:59.895Z,55.60
2018-02-24T23:27:26.182Z,55.50
2018-02-24T23:29:52.777Z,55.30
2018-02-24T23:32:19.014Z,55.30
2018-02-24T23:34:45.231Z,55.30
2018-02-24T23:37:11.431Z,56.70
2018-02-24T23:39:37.689Z,56.00
2018-02-24T23:42:03.968Z,55.00
2018-02-24T23:44:30.163Z,54.50
2018-02-24T23:46:56.378Z,56.50
2018-02-24T23:49:22.576Z,55.10
2018-02-24T23:51:48.791Z,55.50
2018-02-24T23:54:15.006Z,55.70
2018-02-24T23:56:41.559Z,56.40
2018-02-24T23:59:07.770Z,55.00
